Time;durP1;ratioP1;P1;durP2;ratioP2;P2;SDS_P1;SDS_P2;PMS_P1;PMS_P2;Temp;Humidity;BMP_temperature;BMP_pressure;BME280_temperature;BME280_humidity;BME280_pressure;Samples;Min_cycle;Max_cycle;Signal;HPM_P1;HPM_P2
2022/11/01 00:01:00;;;;;;;;;;;20.00;63.80;;;;;;5072531;28;20015;-62
2022/11/01 00:03:26;;;;;;;;;;;20.00;63.80;;;;;;5072838;28;19913;-62
2022/11/01 00:05:51;;;;;;;;;;;20.00;63.70;;;;;;5071449;28;20011;-62
2022/11/01 00:08:17;;;;;;;;;;;20.00;63.70;;;;;;5071378;28;20287;-62
2022/11/01 00:10:42;;;;;;;;;;;20.00;63.70;;;;;;5070451;28;20287;-62
2022/11/01 00:13:08;;;;;;;;;;;20.10;63.80;;;;;;5051547;28;20046;-62
2022/11/01 00:15:33;;;;;;;;;;;20.10;63.60;;;;;;5052707;28;19962;-62
2022/11/01 00:17:59;;;;;;;;;;;20.10;63.50;;;;;;5052375;28;19909;-62
2022/11/01 00:20:24;;;;;;;;;;;20.10;63.50;;;;;;5052295;28;19919;-62
2022/11/01 00:22:49;;;;;;;;;;;20.10;63.60;;;;;;5052562;28;19923;-62
2022/11/01 00:25:15;;;;;;;;;;;20.10;63.50;;;;;;5052165;28;19978;-62
2022/11/01 00:27:40;;;;;;;;;;;20.10;63.50;;;;;;5052247;28;19909;-62
2022/11/01 00:30:06;;;;;;;;;;;20.10;63.60;;;;;;5052345;28;20380;-62
2022/11/01 00:32:31;;;;;;;;;;;20.10;63.60;;;;;;5052370;28;20331;-62
2022/11/01 00:34:57;;;;;;;;;;;20.10;63.40;;;;;;5052384;28;19915;-62
2022/11/01 00:37:22;;;;;;;;;;;20.10;63.40;;;;;;5052356;28;19916;-62
2022/11/01 00:39:48;;;;;;;;;;;20.00;63.60;;;;;;5070746;28;19909;-62
2022/11/01 00:42:13;;;;;;;;;;;20.00;63.90;;;;;;5071426;28;19918;-62
2022/11/01 00:44:38;;;;;;;;;;;20.00;64.00;;;;;;5054684;28;19923;-62
2022/11/01 00:47:04;;;;;;;;;;;20.00;64.00;;;;;;5052251;28;19994;-62
2022/11/01 00:49:29;;;;;;;;;;;20.00;64.00;;;;;;5052451;28;19920;-62
2022/11/01 00:51:55;;;;;;;;;;;20.00;64.00;;;;;;5052268;28;20396;-62
2022/11/01 00:54:20;;;;;;;;;;;20.00;63.80;;;;;;5052307;28;20327;-62
2022/11/01 00:56:46;;;;;;;;;;;20.00;63.80;;;;;;5051312;28;19956;-62
2022/11/01 00:59:11;;;;;;;;;;;20.00;63.70;;;;;;5052187;28;19996;-62
2022/11/01 01:01:37;;;;;;;;;;;20.00;63.70;;;;;;5052331;28;20058;-62
2022/11/01 01:04:02;;;;;;;;;;;20.00;63.70;;;;;;5050884;28;19915;-62
2022/11/01 01:06:28;;;;;;;;;;;20.00;63.70;;;;;;5052108;28;19909;-62
2022/11/01 01:08:56;;;;;;;;;;;20.00;63.70;;;;;;5063050;28;20251;-62
2022/11/01 01:11:21;;;;;;;;;;;20.00;63.80;;;;;;5071231;28;19962;-62
2022/11/01 01:13:47;;;;;;;;;;;20.00;63.80;;;;;;5072224;28;20284;-62
2022/11/01 01:16:12;;;;;;;;;;;20.00;64.00;;;;;;5071973;28;20090;-62
2022/11/01 01:18:38;;;;;;;;;;;20.00;64.00;;;;;;5054130;28;19923;-62
2022/11/01 01:21:03;;;;;;;;;;;19.90;63.90;;;;;;5071551;28;19920;-62
2022/11/01 01:23:29;;;;;;;;;;;20.00;63.90;;;;;;5072431;28;20272;-62
2022/11/01 01:25:54;;;;;;;;;;;20.00;64.00;;;;;;5053202;28;20391;-62
2022/11/01 01:28:20;;;;;;;;;;;19.90;63.90;;;;;;5072328;28;20049;-62
2022/11/01 01:30:45;;;;;;;;;;;19.90;64.00;;;;;;5075518;28;19909;-62
2022/11/01 01:33:10;;;;;;;;;;;19.90;64.20;;;;;;5063329;28;19916;-62
2022/11/01 01:35:36;;;;;;;;;;;19.90;64.20;;;;;;5055872;28;19909;-62
2022/11/01 01:38:02;;;;;;;;;;;19.90;64.20;;;;;;5074441;28;19916;-62
2022/11/01 01:40:27;;;;;;;;;;;19.90;64.90;;;;;;5057233;28;19913;-62
2022/11/01 01:42:53;;;;;;;;;;;19.90;64.10;;;;;;5074931;28;19966;-62
2022/11/01 01:45:22;;;;;;;;;;;19.90;64.20;;;;;;5075252;28;19962;-62
2022/11/01 01:47:48;;;;;;;;;;;19.90;64.20;;;;;;5057406;28;19915;-62
2022/11/01 01:50:31;;;;;;;;;;;19.90;64.10;;;;;;5075214;28;19913;-62
2022/11/01 01:53:07;;;;;;;;;;;19.90;64.00;;;;;;5075383;28;19915;-62
2022/11/01 01:55:34;;;;;;;;;;;19.90;63.90;;;;;;5056830;28;19908;-62
2022/11/01 01:58:00;;;;;;;;;;;19.90;63.90;;;;;;5074700;28;19957;-62
2022/11/01 02:00:26;;;;;;;;;;;19.90;63.80;;;;;;5057104;28;19916;-62
2022/11/01 02:02:51;;;;;;;;;;;20.00;63.90;;;;;;5074967;28;19962;-62
2022/11/01 02:05:19;;;;;;;;;;;20.00;63.80;;;;;;5074978;28;19909;-62
2022/11/01 02:07:44;;;;;;;;;;;20.00;63.80;;;;;;5056905;28;19967;-63
2022/11/01 02:10:10;;;;;;;;;;;20.00;63.80;;;;;;5056487;28;19944;-62
2022/11/01 02:12:36;;;;;;;;;;;20.00;63.80;;;;;;5058459;28;19909;-62
2022/11/01 02:15:02;;;;;;;;;;;20.00;63.80;;;;;;5054690;28;19909;-62
2022/11/01 02:17:39;;;;;;;;;;;20.00;63.80;;;;;;5070199;28;19908;-61
2022/11/01 02:20:19;;;;;;;;;;;20.00;63.80;;;;;;5070153;28;19909;-62
2022/11/01 02:22:49;;;;;;;;;;;19.90;63.80;;;;;;5070000;28;19932;-62
2022/11/01 02:25:17;;;;;;;;;;;19.90;63.90;;;;;;5054351;28;19967;-62
2022/11/01 02:27:58;;;;;;;;;;;19.90;63.80;;;;;;5054158;28;19909;-62
2022/11/01 02:30:24;;;;;;;;;;;19.90;63.80;;;;;;5069925;28;19932;-62
2022/11/01 02:32:58;;;;;;;;;;;19.90;64.70;;;;;;5070002;28;19909;-62
2022/11/01 02:35:26;;;;;;;;;;;19.90;64.10;;;;;;5054398;28;19916;-62
2022/11/01 02:37:53;;;;;;;;;;;19.90;64.10;;;;;;5056635;28;19909;-62
2022/11/01 02:40:39;;;;;;;;;;;19.80;64.20;;;;;;5055939;28;19915;-62
2022/11/01 02:43:07;;;;;;;;;;;19.80;64.10;;;;;;5065974;28;20277;-62
2022/11/01 02:45:33;;;;;;;;;;;19.80;64.10;;;;;;5074179;28;20376;-63
2022/11/01 02:47:59;;;;;;;;;;;19.80;64.20;;;;;;5056154;28;19958;-62
2022/11/01 02:50:25;;;;;;;;;;;19.80;64.20;;;;;;5040147;28;19908;-62
2022/11/01 02:52:50;;;;;;;;;;;19.80;64.10;;;;;;5074274;28;20006;-62
2022/11/01 02:55:28;;;;;;;;;;;19.80;64.10;;;;;;5055614;28;20352;-62
2022/11/01 02:57:57;;;;;;;;;;;19.80;64.20;;;;;;5073546;28;19908;-62
2022/11/01 03:00:24;;;;;;;;;;;19.80;64.20;;;;;;5070446;28;19909;-62
2022/11/01 03:02:55;;;;;;;;;;;19.80;64.20;;;;;;5069324;28;19913;-62
2022/11/01 03:05:23;;;;;;;;;;;19.80;64.20;;;;;;5069156;28;20019;-61
2022/11/01 03:07:53;;;;;;;;;;;19.80;64.20;;;;;;5071041;28;19912;-62
2022/11/01 03:10:19;;;;;;;;;;;19.80;64.20;;;;;;5055429;28;19947;-62
2022/11/01 03:13:05;;;;;;;;;;;19.80;64.20;;;;;;5055504;28;20380;-62
2022/11/01 03:15:31;;;;;;;;;;;19.80;64.20;;;;;;5052340;28;19920;-62
2022/11/01 03:17:56;;;;;;;;;;;19.90;64.20;;;;;;5073507;28;19916;-62
2022/11/01 03:20:46;;;;;;;;;;;19.90;64.20;;;;;;5073319;28;19908;-62
2022/11/01 03:23:12;;;;;;;;;;;19.90;64.20;;;;;;5041298;28;20368;-62
2022/11/01 03:25:39;;;;;;;;;;;19.90;64.20;;;;;;5072936;28;19909;-62
2022/11/01 03:28:05;;;;;;;;;;;19.90;64.10;;;;;;5072839;28;19909;-62
2022/11/01 03:30:30;;;;;;;;;;;19.90;64.10;;;;;;5073286;28;19913;-62
2022/11/01 03:32:56;;;;;;;;;;;19.90;64.10;;;;;;5051984;28;19913;-62
2022/11/01 03:35:22;;;;;;;;;;;19.90;64.20;;;;;;5068955;28;19909;-62
2022/11/01 03:37:47;;;;;;;;;;;19.90;64.10;;;;;;5070306;28;19909;-62
2022/11/01 03:40:13;;;;;;;;;;;19.90;64.10;;;;;;5072888;28;20116;-62
2022/11/01 03:42:39;;;;;;;;;;;19.90;64.00;;;;;;5054725;28;20372;-62
2022/11/01 03:45:06;;;;;;;;;;;19.90;64.00;;;;;;5055263;28;19916;-62
2022/11/01 03:47:31;;;;;;;;;;;19.90;64.00;;;;;;5073049;28;19912;-62
2022/11/01 03:50:13;;;;;;;;;;;19.90;64.10;;;;;;5038301;28;19914;-62
2022/11/01 03:52:38;;;;;;;;;;;19.90;64.10;;;;;;5072812;28;20387;-62
2022/11/01 03:55:16;;;;;;;;;;;19.90;64.10;;;;;;5072434;28;19953;-62
2022/11/01 03:57:42;;;;;;;;;;;19.90;64.20;;;;;;5072377;28;19909;-62
2022/11/01 04:00:08;;;;;;;;;;;19.90;64.20;;;;;;5072850;28;19915;-62
2022/11/01 04:02:33;;;;;;;;;;;19.90;64.30;;;;;;5072578;28;19921;-62
2022/11/01 04:04:59;;;;;;;;;;;19.90;64.20;;;;;;5072748;28;19912;-62
2022/11/01 04:07:24;;;;;;;;;;;19.90;64.20;;;;;;5038060;28;20009;-62
2022/11/01 04:09:50;;;;;;;;;;;19.90;64.20;;;;;;5072721;28;19920;-62
2022/11/01 04:12:15;;;;;;;;;;;19.90;64.10;;;;;;5054290;28;19909;-62
2022/11/01 04:22:53;;;;;;;;;;;19.90;64.10;;;;;;5056751;28;19973;-62
2022/11/01 04:25:18;;;;;;;;;;;19.90;64.10;;;;;;5052077;28;20000;-62
2022/11/01 04:27:44;;;;;;;;;;;19.90;64.20;;;;;;5052077;28;19908;-62
2022/11/01 04:30:09;;;;;;;;;;;19.90;64.20;;;;;;5051449;28;19909;-62
2022/11/01 04:32:35;;;;;;;;;;;19.90;64.10;;;;;;5052413;28;19909;-62
2022/11/01 04:35:00;;;;;;;;;;;20.00;64.10;;;;;;5052358;28;19920;-62
2022/11/01 04:37:26;;;;;;;;;;;20.00;64.00;;;;;;5052496;28;19915;-62
2022/11/01 04:39:51;;;;;;;;;;;20.00;63.90;;;;;;5071135;28;20000;-62
2022/11/01 04:42:16;;;;;;;;;;;20.00;63.90;;;;;;5053234;28;19923;-62
2022/11/01 04:44:43;;;;;;;;;;;20.00;64.00;;;;;;5072398;28;19909;-62
2022/11/01 04:47:09;;;;;;;;;;;20.00;64.00;;;;;;5072298;28;19912;-62
2022/11/01 04:49:34;;;;;;;;;;;20.00;64.10;;;;;;5072277;28;19958;-62
2022/11/01 04:52:00;;;;;;;;;;;19.90;64.10;;;;;;5072321;28;19908;-62
2022/11/01 04:54:25;;;;;;;;;;;19.90;64.10;;;;;;5054182;28;20063;-62
2022/11/01 04:56:50;;;;;;;;;;;19.90;64.10;;;;;;5071338;28;19913;-62
2022/11/01 04:59:16;;;;;;;;;;;19.90;64.20;;;;;;5072136;28;19909;-62
2022/11/01 05:01:43;;;;;;;;;;;19.90;64.20;;;;;;5057647;28;19912;-62
2022/11/01 05:04:09;;;;;;;;;;;19.90;64.20;;;;;;5053707;28;19916;-63
2022/11/01 05:06:34;;;;;;;;;;;19.90;64.20;;;;;;5054438;28;19908;-62
2022/11/01 05:09:00;;;;;;;;;;;19.90;64.20;;;;;;5067744;28;19908;-62
2022/11/01 05:11:25;;;;;;;;;;;19.90;64.20;;;;;;5075089;28;19908;-62
2022/11/01 05:13:51;;;;;;;;;;;19.90;64.30;;;;;;5075792;28;20371;-62
2022/11/01 05:16:16;;;;;;;;;;;19.90;64.30;;;;;;5075738;28;20011;-62
2022/11/01 05:18:42;;;;;;;;;;;19.90;64.30;;;;;;5075645;28;20261;-62
2022/11/01 05:21:07;;;;;;;;;;;19.90;64.30;;;;;;5075247;28;19960;-62
2022/11/01 05:23:32;;;;;;;;;;;19.90;64.30;;;;;;5075743;28;19908;-62
2022/11/01 05:25:58;;;;;;;;;;;19.90;64.20;;;;;;5056797;28;19915;-62
2022/11/01 05:28:23;;;;;;;;;;;19.90;64.20;;;;;;5075667;28;20374;-62
2022/11/01 05:30:49;;;;;;;;;;;19.90;64.30;;;;;;5075353;28;19909;-62
2022/11/01 05:33:14;;;;;;;;;;;19.90;64.30;;;;;;5075792;28;20409;-62
2022/11/01 05:35:40;;;;;;;;;;;19.90;64.40;;;;;;5057586;28;19909;-62
2022/11/01 05:38:05;;;;;;;;;;;19.90;64.40;;;;;;5075571;28;19915;-62
2022/11/01 05:40:31;;;;;;;;;;;19.90;64.40;;;;;;5074809;28;19912;-62
2022/11/01 05:42:56;;;;;;;;;;;19.80;64.40;;;;;;5056834;28;19913;-62
2022/11/01 05:45:22;;;;;;;;;;;19.80;64.50;;;;;;5075279;28;19915;-62
2022/11/01 05:47:47;;;;;;;;;;;19.80;64.50;;;;;;5075125;28;20318;-62
2022/11/01 05:50:13;;;;;;;;;;;19.80;64.50;;;;;;5066970;28;19960;-62
2022/11/01 05:52:39;;;;;;;;;;;19.80;64.60;;;;;;5055156;28;19913;-62
2022/11/01 05:55:04;;;;;;;;;;;19.80;64.50;;;;;;5054498;28;19909;-62
2022/11/01 05:57:30;;;;;;;;;;;19.80;65.30;;;;;;5054613;28;19909;-62
2022/11/01 05:59:55;;;;;;;;;;;19.80;64.50;;;;;;5054852;28;19909;-62
2022/11/01 06:02:20;;;;;;;;;;;19.80;64.60;;;;;;5054952;28;19916;-62
2022/11/01 06:04:46;;;;;;;;;;;19.80;64.60;;;;;;5054903;28;20421;-62
2022/11/01 06:07:11;;;;;;;;;;;19.80;64.50;;;;;;5054673;28;19911;-62
2022/11/01 06:09:37;;;;;;;;;;;19.80;64.40;;;;;;5071809;28;19908;-62
2022/11/01 06:12:03;;;;;;;;;;;19.80;64.50;;;;;;5073947;28;19908;-62
2022/11/01 06:14:28;;;;;;;;;;;19.80;64.60;;;;;;5074560;28;19908;-62
2022/11/01 06:16:53;;;;;;;;;;;19.80;64.60;;;;;;5074525;28;19908;-62
2022/11/01 06:19:19;;;;;;;;;;;19.80;64.60;;;;;;5074574;28;19909;-62
2022/11/01 06:21:44;;;;;;;;;;;19.80;64.70;;;;;;5067907;28;20010;-62
2022/11/01 06:24:10;;;;;;;;;;;19.80;64.70;;;;;;5054548;28;20024;-62
2022/11/01 06:26:36;;;;;;;;;;;19.80;64.70;;;;;;5069019;28;19909;-62
2022/11/01 06:29:01;;;;;;;;;;;19.80;64.70;;;;;;5054448;28;19913;-62
2022/11/01 06:31:27;;;;;;;;;;;19.80;64.70;;;;;;5054350;28;19913;-62
2022/11/01 06:33:52;;;;;;;;;;;19.80;64.70;;;;;;5054443;28;19909;-62
2022/11/01 06:36:18;;;;;;;;;;;19.80;64.70;;;;;;5054078;28;19916;-62
2022/11/01 06:38:43;;;;;;;;;;;19.80;64.80;;;;;;5063763;28;20378;-62
2022/11/01 06:41:08;;;;;;;;;;;19.80;64.80;;;;;;5073093;28;19919;-62
2022/11/01 06:43:34;;;;;;;;;;;19.80;64.70;;;;;;5074301;28;20299;-62
2022/11/01 06:46:00;;;;;;;;;;;19.80;64.60;;;;;;5073853;28;20392;-62
2022/11/01 06:48:25;;;;;;;;;;;19.80;64.60;;;;;;5074308;28;19909;-62
2022/11/01 06:50:52;;;;;;;;;;;19.80;64.70;;;;;;5073890;28;19974;-62
2022/11/01 06:53:18;;;;;;;;;;;19.80;64.80;;;;;;5074043;28;19912;-62
2022/11/01 06:55:43;;;;;;;;;;;19.80;64.80;;;;;;5073535;28;19916;-62
2022/11/01 06:58:09;;;;;;;;;;;19.70;64.60;;;;;;5073374;28;19909;-62
2022/11/01 07:00:34;;;;;;;;;;;19.80;64.90;;;;;;5068811;28;19909;-62
2022/11/01 07:03:00;;;;;;;;;;;19.80;64.70;;;;;;5053467;28;20019;-62
2022/11/01 07:05:26;;;;;;;;;;;19.80;64.60;;;;;;5053677;28;19909;-62
2022/11/01 07:07:51;;;;;;;;;;;19.80;64.50;;;;;;5055916;28;19913;-62
2022/11/01 07:10:17;;;;;;;;;;;19.90;64.50;;;;;;5055325;28;19912;-62
2022/11/01 07:12:42;;;;;;;;;;;19.90;64.50;;;;;;5073361;28;19909;-62
2022/11/01 07:15:09;;;;;;;;;;;19.80;64.50;;;;;;5073359;28;19915;-62
2022/11/01 07:17:35;;;;;;;;;;;19.80;64.60;;;;;;5073320;28;19952;-62
2022/11/01 07:20:00;;;;;;;;;;;19.80;64.70;;;;;;5073236;28;19955;-62
2022/11/01 07:22:26;;;;;;;;;;;19.80;64.80;;;;;;5073151;28;19974;-62
2022/11/01 07:24:51;;;;;;;;;;;19.70;64.70;;;;;;5073298;28;19951;-62
2022/11/01 07:27:17;;;;;;;;;;;19.70;64.70;;;;;;5071582;28;19909;-62
2022/11/01 07:29:42;;;;;;;;;;;19.70;64.70;;;;;;5073212;28;19909;-62
2022/11/01 07:32:07;;;;;;;;;;;19.70;64.70;;;;;;5054819;28;19954;-62
2022/11/01 07:34:33;;;;;;;;;;;19.70;64.70;;;;;;5072966;28;19909;-62
2022/11/01 07:36:58;;;;;;;;;;;19.80;64.80;;;;;;5072916;28;19909;-62
2022/11/01 07:39:24;;;;;;;;;;;19.70;64.70;;;;;;5072861;28;19908;-62
2022/11/01 07:41:51;;;;;;;;;;;19.70;64.70;;;;;;5071937;28;19950;-62
2022/11/01 07:44:16;;;;;;;;;;;19.70;64.70;;;;;;5055310;28;19957;-62
2022/11/01 07:46:42;;;;;;;;;;;19.70;64.70;;;;;;5072703;28;19912;-62
2022/11/01 07:49:07;;;;;;;;;;;19.70;64.60;;;;;;5072815;28;19915;-62
2022/11/01 07:51:32;;;;;;;;;;;19.80;64.80;;;;;;5056520;28;19916;-63
2022/11/01 07:53:58;;;;;;;;;;;19.80;64.80;;;;;;5052620;28;19909;-62
2022/11/01 07:56:23;;;;;;;;;;;19.80;64.60;;;;;;5051943;28;20252;-62
2022/11/01 07:58:49;;;;;;;;;;;19.80;64.70;;;;;;5052712;28;20472;-62
2022/11/01 08:01:14;;;;;;;;;;;19.80;64.50;;;;;;5052406;28;19912;-62
2022/11/01 08:03:40;;;;;;;;;;;19.80;64.50;;;;;;5052964;28;19913;-62
2022/11/01 08:06:05;;;;;;;;;;;19.80;64.60;;;;;;5052506;28;20368;-62
2022/11/01 08:08:31;;;;;;;;;;;19.80;64.50;;;;;;5060615;28;19912;-62
2022/11/01 08:10:58;;;;;;;;;;;19.80;64.50;;;;;;5071637;28;19909;-62
2022/11/01 08:13:23;;;;;;;;;;;19.90;64.60;;;;;;5072732;28;19908;-62
2022/11/01 08:15:49;;;;;;;;;;;19.80;64.50;;;;;;5054392;28;19939;-62
2022/11/01 08:18:15;;;;;;;;;;;19.80;64.50;;;;;;5072677;28;19909;-62
2022/11/01 08:20:40;;;;;;;;;;;19.80;64.50;;;;;;5072381;28;19927;-62
2022/11/01 08:23:06;;;;;;;;;;;19.80;64.60;;;;;;5054909;28;20357;-62
2022/11/01 08:25:31;;;;;;;;;;;19.80;64.70;;;;;;5067478;28;20036;-62
2022/11/01 08:28:01;;;;;;;;;;;19.80;64.70;;;;;;5052165;28;20329;-62
2022/11/01 08:30:26;;;;;;;;;;;19.80;64.80;;;;;;5051036;28;19909;-62
2022/11/01 08:32:59;;;;;;;;;;;19.80;64.80;;;;;;5067928;28;19920;-62
2022/11/01 08:35:24;;;;;;;;;;;19.80;64.80;;;;;;5052555;28;19912;-62
2022/11/01 08:37:50;;;;;;;;;;;19.80;64.70;;;;;;5071224;28;19916;-62
2022/11/01 08:40:16;;;;;;;;;;;19.80;64.70;;;;;;5075983;28;19935;-62
2022/11/01 08:42:41;;;;;;;;;;;19.80;64.60;;;;;;5075936;28;20283;-62
2022/11/01 08:45:06;;;;;;;;;;;19.80;64.60;;;;;;5076600;28;19909;-62
2022/11/01 08:47:32;;;;;;;;;;;19.80;64.60;;;;;;5058499;28;19909;-62
2022/11/01 08:49:57;;;;;;;;;;;19.80;64.60;;;;;;5076353;28;19939;-61
2022/11/01 08:52:24;;;;;;;;;;;19.80;64.70;;;;;;5076273;28;19915;-62
2022/11/01 08:54:49;;;;;;;;;;;19.80;64.70;;;;;;5076217;28;19908;-62
2022/11/01 08:57:15;;;;;;;;;;;19.80;64.70;;;;;;5057189;28;19909;-62
2022/11/01 08:59:40;;;;;;;;;;;19.80;64.60;;;;;;5076205;28;19973;-62
2022/11/01 09:02:08;;;;;;;;;;;19.80;64.60;;;;;;5075909;28;19912;-62
2022/11/01 09:04:33;;;;;;;;;;;19.80;64.80;;;;;;5058125;28;20066;-62
2022/11/01 09:06:59;;;;;;;;;;;19.80;64.70;;;;;;5075784;28;19999;-62
2022/11/01 09:09:24;;;;;;;;;;;19.80;64.80;;;;;;5076010;28;19977;-62
2022/11/01 09:11:50;;;;;;;;;;;19.80;64.80;;;;;;5063181;28;19908;-62
2022/11/01 09:14:16;;;;;;;;;;;19.80;64.90;;;;;;5055926;28;20416;-62
2022/11/01 09:16:41;;;;;;;;;;;19.80;64.80;;;;;;5055987;28;20334;-62
2022/11/01 09:19:06;;;;;;;;;;;19.80;64.70;;;;;;5055847;28;19913;-62
2022/11/01 09:21:32;;;;;;;;;;;19.80;64.60;;;;;;5067621;28;19960;-62
2022/11/01 09:23:58;;;;;;;;;;;19.80;64.70;;;;;;5036104;28;19932;-62
2022/11/01 09:26:25;;;;;;;;;;;19.80;64.80;;;;;;5034836;28;19937;-62
2022/11/01 09:28:51;;;;;;;;;;;19.80;64.90;;;;;;5035914;28;19988;-62
2022/11/01 09:31:17;;;;;;;;;;;19.80;64.90;;;;;;5035404;28;19963;-62
2022/11/01 09:33:42;;;;;;;;;;;19.80;64.80;;;;;;5035888;28;20375;-63
2022/11/01 09:36:07;;;;;;;;;;;19.80;64.70;;;;;;5035433;28;19949;-62
2022/11/01 09:38:34;;;;;;;;;;;19.80;64.70;;;;;;5043512;28;19908;-62
2022/11/01 09:41:09;;;;;;;;;;;19.80;64.90;;;;;;5052997;28;19909;-62
2022/11/01 09:43:36;;;;;;;;;;;19.80;64.50;;;;;;5087683;28;20008;-62
2022/11/01 09:46:01;;;;;;;;;;;19.90;64.50;;;;;;5087377;28;20384;-62
2022/11/01 09:48:27;;;;;;;;;;;19.90;64.40;;;;;;5055378;28;20035;-62
2022/11/01 09:50:53;;;;;;;;;;;19.90;64.40;;;;;;5043379;28;19916;-62
2022/11/01 09:53:27;;;;;;;;;;;20.00;64.50;;;;;;5035258;28;19933;-62
2022/11/01 09:56:08;;;;;;;;;;;20.00;64.40;;;;;;5066247;28;19916;-63
2022/11/01 09:58:43;;;;;;;;;;;20.00;64.40;;;;;;5035125;28;19951;-62
2022/11/01 10:01:12;;;;;;;;;;;20.00;64.40;;;;;;5066673;28;20071;-62
2022/11/01 10:03:54;;;;;;;;;;;20.00;64.40;;;;;;5067002;28;19909;-62
2022/11/01 10:06:38;;;;;;;;;;;19.90;64.30;;;;;;5034694;28;19995;-62
2022/11/01 10:09:21;;;;;;;;;;;19.90;64.40;;;;;;5046978;28;19916;-62
2022/11/01 10:11:49;;;;;;;;;;;19.90;64.40;;;;;;5054419;28;19915;-62
2022/11/01 10:14:15;;;;;;;;;;;19.90;64.40;;;;;;5054866;28;20330;-62
2022/11/01 10:16:42;;;;;;;;;;;19.90;64.60;;;;;;5054628;28;19992;-62
2022/11/01 10:19:13;;;;;;;;;;;19.90;64.60;;;;;;5053498;28;19909;-62
2022/11/01 10:21:43;;;;;;;;;;;19.90;64.60;;;;;;5066151;28;19932;-62
2022/11/01 10:24:23;;;;;;;;;;;19.90;64.60;;;;;;5056724;28;19965;-62
2022/11/01 10:26:49;;;;;;;;;;;19.90;64.70;;;;;;5073572;28;20225;-62
2022/11/01 10:29:24;;;;;;;;;;;19.90;65.40;;;;;;5039807;28;19915;-62
2022/11/01 10:31:50;;;;;;;;;;;19.90;65.40;;;;;;5074270;28;19909;-62
2022/11/01 10:34:21;;;;;;;;;;;19.90;64.70;;;;;;5056345;28;19908;-62
2022/11/01 10:36:47;;;;;;;;;;;19.80;64.70;;;;;;5074326;28;19909;-62
2022/11/01 10:39:15;;;;;;;;;;;19.80;64.70;;;;;;5071819;28;19909;-62
2022/11/01 10:41:42;;;;;;;;;;;19.80;64.70;;;;;;5068765;28;19920;-62
2022/11/01 10:44:13;;;;;;;;;;;19.90;64.70;;;;;;5069582;28;19916;-62
2022/11/01 10:46:39;;;;;;;;;;;19.90;64.70;;;;;;5054075;28;19909;-62
2022/11/01 10:49:05;;;;;;;;;;;20.00;64.60;;;;;;5054429;28;19909;-62
2022/11/01 10:51:32;;;;;;;;;;;20.00;64.50;;;;;;5054197;28;20012;-62
2022/11/01 10:53:58;;;;;;;;;;;20.00;64.40;;;;;;5069588;28;19909;-62
2022/11/01 10:56:26;;;;;;;;;;;20.00;64.30;;;;;;5053649;28;20267;-62
2022/11/01 10:58:54;;;;;;;;;;;20.00;64.50;;;;;;5054297;28;19992;-62
2022/11/01 11:01:21;;;;;;;;;;;20.00;64.40;;;;;;5068160;28;19912;-62
2022/11/01 11:03:47;;;;;;;;;;;20.00;64.10;;;;;;5069067;28;19909;-62
2022/11/01 11:06:12;;;;;;;;;;;20.00;64.20;;;;;;5068970;28;19908;-62
2022/11/01 11:08:38;;;;;;;;;;;20.00;64.20;;;;;;5078051;28;19908;-62
2022/11/01 11:11:06;;;;;;;;;;;20.00;64.00;;;;;;5051496;28;19912;-62
2022/11/01 11:13:32;;;;;;;;;;;20.00;64.10;;;;;;5068945;28;19920;-62
2022/11/01 11:15:59;;;;;;;;;;;20.00;64.20;;;;;;5053495;28;20309;-62
2022/11/01 11:18:26;;;;;;;;;;;19.90;64.20;;;;;;5053595;28;20372;-62
2022/11/01 11:20:52;;;;;;;;;;;19.90;64.30;;;;;;5053178;28;20366;-62
2022/11/01 11:23:18;;;;;;;;;;;19.90;64.60;;;;;;5068703;28;19920;-62
2022/11/01 11:25:44;;;;;;;;;;;19.90;64.40;;;;;;5052986;28;19908;-62
2022/11/01 11:28:30;;;;;;;;;;;19.80;64.20;;;;;;5053324;28;19915;-64
2022/11/01 11:30:57;;;;;;;;;;;19.80;64.30;;;;;;5052897;28;19908;-62
2022/11/01 11:33:22;;;;;;;;;;;19.80;64.10;;;;;;5068841;28;19908;-62
2022/11/01 11:35:51;;;;;;;;;;;19.80;64.00;;;;;;5068302;28;19916;-62
2022/11/01 11:38:17;;;;;;;;;;;19.80;64.10;;;;;;5074312;28;19908;-62
2022/11/01 11:40:44;;;;;;;;;;;19.90;64.40;;;;;;5072590;28;20395;-62
2022/11/01 11:43:19;;;;;;;;;;;19.90;64.20;;;;;;5054986;28;20392;-62
2022/11/01 11:45:44;;;;;;;;;;;19.90;64.10;;;;;;5072874;28;20039;-62
2022/11/01 11:48:13;;;;;;;;;;;19.90;64.10;;;;;;5038272;28;19909;-62
2022/11/01 11:50:39;;;;;;;;;;;19.90;63.70;;;;;;5064207;28;20011;-62
2022/11/01 11:53:07;;;;;;;;;;;19.90;63.30;;;;;;5052713;28;19999;-63
2022/11/01 11:55:37;;;;;;;;;;;19.90;63.60;;;;;;5052473;28;19909;-62
2022/11/01 11:58:04;;;;;;;;;;;19.90;63.40;;;;;;5067596;28;19960;-62
2022/11/01 12:00:29;;;;;;;;;;;19.90;63.40;;;;;;5068125;28;19909;-62
2022/11/01 12:02:55;;;;;;;;;;;19.90;63.40;;;;;;5053291;28;20323;-62
2022/11/01 12:05:25;;;;;;;;;;;20.00;63.40;;;;;;5067833;28;20387;-63
2022/11/01 12:07:53;;;;;;;;;;;20.00;63.10;;;;;;5054929;28;19908;-62
2022/11/01 12:10:38;;;;;;;;;;;20.00;63.10;;;;;;5054227;28;19920;-62
2022/11/01 12:13:19;;;;;;;;;;;20.00;63.10;;;;;;5071662;28;19991;-62
2022/11/01 12:15:45;;;;;;;;;;;20.00;63.00;;;;;;5072550;28;19908;-62
2022/11/01 12:18:15;;;;;;;;;;;20.00;63.00;;;;;;5072733;28;19908;-62
2022/11/01 12:20:40;;;;;;;;;;;20.00;63.00;;;;;;5054292;28;19921;-62
2022/11/01 12:23:26;;;;;;;;;;;20.00;62.90;;;;;;5054172;28;21287;-62
2022/11/01 12:25:51;;;;;;;;;;;20.00;62.70;;;;;;5071821;28;19916;-62
2022/11/01 12:28:31;;;;;;;;;;;20.00;62.50;;;;;;5072558;28;19915;-62
2022/11/01 12:30:58;;;;;;;;;;;20.00;62.70;;;;;;5054415;28;19916;-62
2022/11/01 12:33:24;;;;;;;;;;;20.00;62.80;;;;;;5072599;28;19912;-62
2022/11/01 12:35:49;;;;;;;;;;;20.00;62.50;;;;;;5072244;28;19912;-62
2022/11/01 12:38:21;;;;;;;;;;;20.10;62.40;;;;;;5072318;28;20257;-62
2022/11/01 12:40:48;;;;;;;;;;;20.10;62.30;;;;;;5058347;28;20364;-62
2022/11/01 12:43:14;;;;;;;;;;;20.10;62.40;;;;;;5067791;28;19927;-62
2022/11/01 12:45:44;;;;;;;;;;;20.10;62.30;;;;;;5052301;28;19909;-62
2022/11/01 12:48:15;;;;;;;;;;;20.10;62.30;;;;;;5052171;28;19909;-63
2022/11/01 12:50:48;;;;;;;;;;;20.10;62.30;;;;;;5067692;28;19942;-62
2022/11/01 12:53:18;;;;;;;;;;;20.10;62.10;;;;;;5067960;28;19912;-62
2022/11/01 12:55:43;;;;;;;;;;;20.10;62.20;;;;;;5067228;28;19909;-62
2022/11/01 12:58:16;;;;;;;;;;;20.10;62.00;;;;;;5051835;28;19909;-63
2022/11/01 13:00:51;;;;;;;;;;;20.00;62.00;;;;;;5052432;28;19944;-63
2022/11/01 13:03:23;;;;;;;;;;;20.00;61.70;;;;;;5067421;28;19920;-62
2022/11/01 13:06:00;;;;;;;;;;;20.00;61.50;;;;;;5051971;28;20380;-62
2022/11/01 13:08:40;;;;;;;;;;;20.00;61.60;;;;;;5074692;28;20291;-62
2022/11/01 13:11:10;;;;;;;;;;;20.10;61.50;;;;;;5049688;28;19919;-62
2022/11/01 13:13:38;;;;;;;;;;;20.00;61.50;;;;;;5052022;28;20360;-62
2022/11/01 13:16:07;;;;;;;;;;;20.00;61.50;;;;;;5051883;28;19912;-62
2022/11/01 13:18:48;;;;;;;;;;;20.00;61.80;;;;;;5052257;28;20322;-62
2022/11/01 13:21:26;;;;;;;;;;;20.10;61.90;;;;;;5051483;28;19916;-62
2022/11/01 13:24:11;;;;;;;;;;;20.10;61.80;;;;;;5052037;28;19924;-62
2022/11/01 13:26:56;;;;;;;;;;;20.10;61.70;;;;;;5054957;28;19916;-62
2022/11/01 13:29:33;;;;;;;;;;;20.10;61.30;;;;;;5055336;28;19913;-62
2022/11/01 13:32:04;;;;;;;;;;;20.10;61.50;;;;;;5055624;28;19931;-62
2022/11/01 13:34:49;;;;;;;;;;;20.10;61.50;;;;;;5055655;28;19909;-62
2022/11/01 13:37:31;;;;;;;;;;;20.10;61.50;;;;;;5055346;28;19908;-62
2022/11/01 13:40:03;;;;;;;;;;;20.10;61.40;;;;;;5090372;28;19957;-62
2022/11/01 13:42:47;;;;;;;;;;;20.00;61.10;;;;;;5074838;28;19962;-62
2022/11/01 13:45:17;;;;;;;;;;;20.00;61.40;;;;;;5075407;28;19931;-62
2022/11/01 13:48:04;;;;;;;;;;;20.00;61.50;;;;;;5075410;28;20275;-62
2022/11/01 13:50:49;;;;;;;;;;;19.90;61.60;;;;;;5057336;28;19915;-62
2022/11/01 13:53:14;;;;;;;;;;;19.90;61.40;;;;;;5075026;28;19908;-62
2022/11/01 13:55:48;;;;;;;;;;;19.90;61.30;;;;;;5074409;28;19931;-62
2022/11/01 13:58:17;;;;;;;;;;;19.90;61.10;;;;;;5075192;28;20275;-62
2022/11/01 14:00:48;;;;;;;;;;;20.00;61.00;;;;;;5053768;28;19909;-62
2022/11/01 14:03:24;;;;;;;;;;;20.00;60.70;;;;;;5054711;28;20377;-62
2022/11/01 14:06:08;;;;;;;;;;;20.00;60.50;;;;;;5070071;28;19909;-62
2022/11/01 14:08:37;;;;;;;;;;;20.10;60.80;;;;;;5062929;28;19908;-62
2022/11/01 14:11:02;;;;;;;;;;;20.00;60.80;;;;;;5073855;28;19924;-62
2022/11/01 14:13:29;;;;;;;;;;;20.00;60.70;;;;;;5057153;28;19958;-63
2022/11/01 14:15:54;;;;;;;;;;;20.00;60.70;;;;;;5056538;28;19909;-62
2022/11/01 14:18:20;;;;;;;;;;;20.00;60.80;;;;;;5074586;28;19909;-62
2022/11/01 14:20:46;;;;;;;;;;;20.00;61.10;;;;;;5074385;28;19912;-62
2022/11/01 14:23:27;;;;;;;;;;;20.00;61.30;;;;;;5074696;28;20289;-62
2022/11/01 14:26:11;;;;;;;;;;;20.00;61.10;;;;;;5073474;28;19966;-61
2022/11/01 14:28:40;;;;;;;;;;;20.00;60.90;;;;;;5074402;28;20276;-62